createdAt,value
2018-04-28T00:00:47.511Z,83.27
2018-04-28T00:03:51.579Z,82.51
2018-04-28T00:06:54.930Z,82.94
2018-04-28T00:09:58.212Z,83.38
2018-04-28T00:13:01.583Z,83.34
2018-04-28T00:16:14.972Z,82.75
2018-04-28T00:19:18.314Z,83.33
2018-04-28T00:22:24.063Z,82.43
2018-04-28T00:25:43.652Z,83.56
2018-04-28T00:28:52.375Z,83.63
2018-04-28T00:31:56.605Z,84.04
2018-04-28T00:35:14.841Z,84.59
2018-04-28T00:38:18.232Z,85.28
2018-04-28T00:41:21.532Z,85.06
2018-04-28T00:44:27.330Z,85.48
2018-04-28T00:47:31.398Z,85.01
2018-04-28T00:50:35.531Z,85.01
2018-04-28T00:53:38.833Z,83.90
2018-04-28T00:56:53.855Z,84.50
2018-04-28T01:00:16.435Z,84.27
2018-04-28T01:03:21.390Z,84.59
2018-04-28T01:06:24.772Z,85.20
2018-04-28T01:09:28.084Z,86.08
2018-04-28T01:12:32.905Z,86.67
2018-04-28T01:15:38.997Z,86.91
2018-04-28T01:18:46.478Z,86.77
2018-04-28T01:21:49.878Z,86.72
2018-04-28T01:24:53.265Z,86.52
2018-04-28T01:27:59.795Z,86.60
2018-04-28T01:31:05.698Z,86.68
2018-04-28T01:34:15.477Z,86.60
2018-04-28T01:37:36.464Z,86.92
2018-04-28T01:40:40.392Z,87.29
2018-04-28T01:43:46.745Z,87.16
2018-04-28T01:46:54.433Z,85.97
2018-04-28T01:49:58.362Z,86.37
2018-04-28T01:53:01.749Z,86.75
2018-04-28T01:56:05.880Z,86.94
2018-04-28T01:59:09.271Z,86.60
2018-04-28T02:02:13.388Z,86.78
2018-04-28T02:05:23.345Z,87.17
2018-04-28T02:08:26.640Z,87.55
2018-04-28T02:11:34.390Z,87.82
2018-04-28T02:14:43.169Z,87.95
2018-04-28T02:21:29.497Z,88.06
2018-04-28T02:24:41.402Z,88.04
2018-04-28T02:31:41.559Z,87.12
2018-04-28T02:34:50.747Z,87.15
2018-04-28T02:38:13.405Z,87.50
2018-04-28T02:45:17.504Z,88.31
2018-04-28T02:48:26.588Z,88.60
2018-04-28T02:55:02.010Z,88.91
2018-04-28T02:58:11.127Z,89.18
2018-04-28T03:01:32.447Z,89.21
2018-04-28T03:04:35.763Z,89.11
2018-04-28T03:11:21.721Z,89.03
2018-04-28T03:14:25.037Z,89.12
2018-04-28T03:17:33.269Z,89.44
2018-04-28T03:28:07.403Z,90.00
2018-04-28T03:31:12.300Z,89.81
2018-04-28T03:34:28.264Z,89.69
2018-04-28T03:37:33.403Z,89.60
2018-04-28T03:40:37.678Z,89.75
2018-04-28T03:43:41.844Z,89.85
2018-04-28T03:46:45.240Z,90.06
2018-04-28T03:49:52.125Z,90.12
2018-04-28T03:53:01.358Z,89.56
2018-04-28T03:56:06.129Z,89.19
2018-04-28T03:59:27.827Z,89.30
2018-04-28T04:02:49.049Z,89.80
2018-04-28T04:06:04.824Z,90.02
2018-04-28T04:09:33.316Z,90.21
2018-04-28T04:16:22.310Z,90.49
2018-04-28T04:23:08.216Z,90.34
2018-04-28T04:26:22.069Z,90.61
2018-04-28T04:29:38.054Z,90.73
2018-04-28T04:32:41.974Z,90.80
2018-04-28T04:35:56.750Z,90.44
2018-04-28T04:42:55.742Z,89.44
2018-04-28T04:46:04.681Z,89.17
2018-04-28T04:49:32.479Z,88.80
2018-04-28T04:52:47.485Z,88.17
2018-04-28T04:56:03.443Z,87.16
2018-04-28T05:03:11.368Z,86.99
2018-04-28T05:06:34.243Z,86.25
2018-04-28T05:13:30.577Z,85.73
2018-04-28T05:16:40.598Z,86.06
2018-04-28T05:20:01.777Z,86.36
2018-04-28T05:23:17.371Z,85.54
2018-04-28T05:30:28.986Z,83.64
2018-04-28T05:33:44.105Z,83.49
2018-04-28T05:36:56.197Z,82.96
2018-04-28T05:40:23.671Z,82.52
2018-04-28T05:43:57.607Z,82.14
2018-04-28T05:50:56.132Z,80.20
2018-04-28T05:54:17.277Z,80.29
2018-04-28T05:57:35.506Z,80.25
2018-04-28T06:04:28.888Z,79.45
2018-04-28T06:18:48.755Z,79.01
2018-04-28T06:21:52.087Z,78.47
2018-04-28T06:24:56.282Z,79.27
2018-04-28T06:27:59.627Z,79.01
2018-04-28T06:31:02.976Z,78.89
2018-04-28T06:34:06.297Z,79.14
2018-04-28T06:37:09.609Z,79.53
2018-04-28T06:40:13.790Z,79.73
2018-04-28T06:43:17.124Z,79.35
2018-04-28T06:46:21.315Z,79.55
2018-04-28T06:49:24.702Z,79.51
2018-04-28T06:52:28.093Z,80.00
2018-04-28T06:55:31.502Z,80.26
2018-04-28T06:58:34.849Z,79.55
2018-04-28T07:01:38.198Z,77.63
2018-04-28T07:04:41.517Z,76.46
2018-04-28T07:07:44.907Z,75.12
2018-04-28T07:10:48.233Z,75.59
2018-04-28T07:13:52.315Z,75.29
2018-04-28T07:16:55.638Z,74.60
2018-04-28T07:19:59.781Z,73.20
2018-04-28T07:23:03.131Z,73.97
2018-04-28T07:26:06.534Z,72.33
2018-04-28T07:29:09.866Z,73.44
2018-04-28T07:32:14.030Z,73.86
2018-04-28T07:35:17.454Z,74.53
2018-04-28T07:38:20.773Z,74.62
2018-04-28T07:41:24.847Z,73.47
2018-04-28T07:44:28.174Z,73.14
2018-04-28T07:47:31.584Z,73.25
2018-04-28T07:50:34.917Z,72.41
2018-04-28T07:53:38.238Z,71.25
2018-04-28T07:56:41.667Z,71.63
2018-04-28T07:59:45.062Z,70.42
2018-04-28T08:02:48.814Z,70.09
2018-04-28T08:05:52.134Z,70.77
2018-04-28T08:08:55.448Z,71.69
2018-04-28T08:11:58.766Z,72.22
2018-04-28T08:15:02.102Z,73.72
2018-04-28T08:18:06.327Z,74.77
2018-04-28T08:21:09.672Z,74.53
2018-04-28T08:24:12.980Z,74.79
2018-04-28T08:27:16.308Z,74.05
2018-04-28T08:30:20.437Z,73.83
2018-04-28T08:33:23.790Z,72.39
2018-04-28T08:36:27.898Z,71.17
2018-04-28T08:39:31.224Z,69.95
2018-04-28T08:42:34.597Z,68.99
2018-04-28T08:45:38.021Z,68.67
2018-04-28T08:48:41.329Z,67.39
2018-04-28T08:51:45.443Z,66.89
2018-04-28T08:54:49.543Z,66.33
2018-04-28T08:57:52.862Z,65.28
2018-04-28T09:00:59.632Z,65.65
2018-04-28T09:04:02.951Z,65.86
2018-04-28T09:07:45.257Z,65.94
2018-04-28T09:10:49.333Z,66.74
2018-04-28T09:13:52.666Z,67.23
2018-04-28T09:16:56.737Z,67.54
2018-04-28T09:20:00.140Z,68.21
2018-04-28T09:23:03.456Z,68.54
2018-04-28T09:26:06.889Z,68.17
2018-04-28T09:29:10.248Z,68.72
2018-04-28T09:32:13.654Z,69.80
2018-04-28T09:35:17.742Z,70.86
2018-04-28T09:38:21.054Z,71.30
2018-04-28T09:41:24.452Z,70.61
2018-04-28T09:44:27.793Z,70.95
2018-04-28T09:47:31.865Z,70.86
2018-04-28T09:50:35.283Z,67.73
2018-04-28T09:53:38.784Z,68.44
2018-04-28T09:56:43.226Z,70.31
2018-04-28T09:59:47.731Z,71.03
2018-04-28T10:02:51.218Z,71.17
2018-04-28T10:05:54.640Z,70.60
2018-04-28T10:08:57.952Z,69.75
2018-04-28T10:12:02.056Z,69.97
2018-04-28T10:15:05.490Z,71.00
2018-04-28T10:18:08.817Z,71.75
2018-04-28T10:21:12.137Z,71.65
2018-04-28T10:24:15.464Z,73.31
2018-04-28T10:27:19.655Z,74.46
2018-04-28T10:30:23.047Z,74.21
2018-04-28T10:33:26.472Z,73.32
2018-04-28T10:36:30.674Z,73.29
2018-04-28T10:39:33.996Z,73.57
2018-04-28T10:42:37.321Z,71.41
2018-04-28T10:45:40.675Z,70.62
2018-04-28T10:48:43.993Z,70.54
2018-04-28T10:51:48.085Z,69.93
2018-04-28T10:54:51.406Z,70.81
2018-04-28T10:57:54.737Z,70.45
2018-04-28T11:00:58.053Z,70.93
2018-04-28T11:04:01.365Z,71.09
2018-04-28T11:07:04.768Z,71.27
2018-04-28T11:10:08.178Z,70.19
2018-04-28T11:13:11.508Z,70.29
2018-04-28T11:16:14.877Z,68.71
2018-04-28T11:19:18.206Z,67.93
2018-04-28T11:22:22.381Z,66.01
2018-04-28T11:25:25.782Z,65.04
2018-04-28T11:28:29.824Z,60.76
2018-04-28T11:31:33.906Z,60.58
2018-04-28T11:34:37.231Z,60.03
2018-04-28T11:37:40.618Z,60.02
2018-04-28T11:40:43.937Z,61.13
2018-04-28T11:43:47.302Z,61.60
2018-04-28T11:46:50.649Z,61.17
2018-04-28T11:49:55.353Z,60.60
2018-04-28T11:52:59.564Z,61.59
2018-04-28T11:56:03.012Z,60.64
2018-04-28T11:59:06.398Z,61.29
2018-04-28T12:02:09.813Z,63.03
2018-04-28T12:05:13.236Z,63.42
2018-04-28T12:08:16.513Z,63.18
2018-04-28T12:11:19.833Z,63.19
2018-04-28T12:14:23.164Z,62.57
2018-04-28T12:17:26.489Z,61.30
2018-04-28T12:20:30.664Z,59.85
2018-04-28T12:23:33.989Z,60.98
2018-04-28T12:26:37.380Z,60.34
2018-04-28T12:29:40.772Z,59.54
2018-04-28T12:32:44.056Z,59.34
2018-04-28T12:35:50.192Z,58.28
2018-04-28T12:38:53.535Z,56.00
2018-04-28T12:41:56.879Z,54.85
2018-04-28T12:45:00.206Z,54.71
2018-04-28T12:48:03.542Z,53.66
2018-04-28T12:51:06.932Z,51.78
2018-04-28T12:54:10.267Z,48.68
2018-04-28T12:57:14.446Z,47.40
2018-04-28T13:00:17.837Z,47.57
2018-04-28T13:03:21.247Z,47.99
2018-04-28T13:06:24.640Z,48.24
2018-04-28T13:09:27.949Z,48.97
2018-04-28T13:12:31.391Z,47.66
2018-04-28T13:15:34.703Z,48.97
2018-04-28T13:18:38.062Z,50.70
2018-04-28T13:21:41.499Z,51.36
2018-04-28T13:24:44.850Z,54.43
2018-04-28T13:27:48.235Z,57.07
2018-04-28T13:30:51.645Z,51.78
2018-04-28T13:33:55.947Z,51.97
2018-04-28T13:37:00.279Z,52.82
2018-04-28T13:40:03.690Z,56.14
2018-04-28T13:43:07.013Z,55.67
2018-04-28T13:46:11.215Z,56.90
2018-04-28T13:49:14.536Z,55.29
2018-04-28T13:52:18.646Z,56.14
2018-04-28T13:55:22.755Z,54.11
2018-04-28T13:58:26.136Z,54.21
2018-04-28T14:01:29.542Z,51.29
2018-04-28T14:04:32.925Z,48.58
2018-04-28T14:07:36.408Z,47.74
2018-04-28T14:10:39.833Z,48.19
2018-04-28T14:13:43.155Z,48.15
2018-04-28T14:16:46.539Z,48.73
2018-04-28T14:19:50.757Z,48.80
2018-04-28T14:22:54.085Z,50.84
2018-04-28T14:25:57.414Z,50.14
2018-04-28T14:29:00.761Z,49.82
2018-04-28T14:32:04.142Z,51.07
2018-04-28T14:35:07.606Z,50.07
2018-04-28T14:38:10.917Z,51.30
2018-04-28T14:41:14.396Z,50.08
2018-04-28T14:44:17.764Z,49.67
2018-04-28T14:47:21.137Z,48.69
2018-04-28T14:50:24.465Z,49.80
2018-04-28T14:53:27.785Z,51.57
2018-04-28T14:56:31.154Z,51.36
2018-04-28T14:59:34.544Z,51.89
2018-04-28T15:02:39.478Z,52.22
2018-04-28T15:05:42.874Z,52.50
2018-04-28T15:08:46.276Z,53.18
2018-04-28T15:11:49.597Z,54.12
2018-04-28T15:14:52.985Z,54.25
2018-04-28T15:17:57.073Z,55.36
2018-04-28T15:21:00.394Z,56.39
2018-04-28T15:24:03.722Z,54.71
2018-04-28T15:27:07.901Z,53.10
2018-04-28T15:30:11.227Z,53.27
2018-04-28T15:33:14.558Z,52.65
2018-04-28T15:36:17.891Z,50.59
2018-04-28T15:39:21.242Z,51.49
2018-04-28T15:42:24.584Z,53.29
2018-04-28T15:45:27.912Z,53.79
2018-04-28T15:48:31.303Z,54.90
2018-04-28T15:51:34.643Z,51.43
2018-04-28T15:54:38.002Z,49.54
2018-04-28T15:57:41.339Z,50.74
2018-04-28T16:00:44.701Z,52.85
2018-04-28T16:03:48.106Z,53.23
2018-04-28T16:06:51.424Z,51.46
2018-04-28T16:09:55.506Z,50.05
2018-04-28T16:12:58.963Z,49.47
2018-04-28T16:16:02.301Z,48.51
2018-04-28T16:19:05.704Z,50.96
2018-04-28T16:22:09.093Z,52.77
2018-04-28T16:25:12.422Z,55.42
2018-04-28T16:28:15.748Z,56.59
2018-04-28T16:31:19.101Z,58.33
2018-04-28T16:34:22.430Z,60.04
2018-04-28T16:37:26.508Z,60.85
2018-04-28T16:40:29.930Z,62.22
2018-04-28T16:43:33.247Z,62.46
2018-04-28T16:46:38.167Z,62.71
2018-04-28T16:49:41.489Z,63.14
2018-04-28T16:52:45.657Z,62.55
2018-04-28T16:55:48.983Z,62.71
2018-04-28T16:58:52.382Z,63.76
2018-04-28T17:01:55.708Z,64.55
2018-04-28T17:04:59.112Z,65.68
2018-04-28T17:08:02.455Z,65.65
2018-04-28T17:11:05.794Z,66.66
2018-04-28T17:14:09.966Z,66.67
2018-04-28T17:17:13.333Z,66.31
2018-04-28T17:20:17.381Z,66.78
2018-04-28T17:23:20.811Z,67.49
2018-04-28T17:26:24.230Z,67.69
2018-04-28T17:29:28.305Z,67.98
2018-04-28T17:32:31.655Z,68.18
2018-04-28T17:35:34.980Z,68.50
2018-04-28T17:38:38.289Z,68.95
2018-04-28T17:41:41.623Z,68.52
2018-04-28T17:44:44.977Z,69.23
2018-04-28T17:47:48.309Z,70.06
2018-04-28T17:50:51.650Z,70.18
2018-04-28T17:53:54.966Z,70.53
2018-04-28T17:56:58.291Z,70.96
2018-04-28T18:00:01.610Z,71.11
2018-04-28T18:03:04.984Z,71.56
2018-04-28T18:06:08.289Z,72.06
2018-04-28T18:09:11.704Z,72.54
2018-04-28T18:12:15.089Z,72.42
2018-04-28T18:15:18.502Z,72.52
2018-04-28T18:18:21.840Z,72.95
2018-04-28T18:21:25.180Z,73.26
2018-04-28T18:24:28.585Z,73.35
2018-04-28T18:27:31.992Z,73.69
2018-04-28T18:30:35.387Z,74.01
2018-04-28T18:33:38.697Z,74.66
2018-04-28T18:36:42.033Z,75.16
2018-04-28T18:39:45.360Z,75.27
2018-04-28T18:42:49.042Z,75.79
2018-04-28T18:45:52.382Z,76.81
2018-04-28T18:48:55.793Z,76.90
2018-04-28T18:51:59.195Z,77.31
2018-04-28T18:55:02.561Z,77.78
2018-04-28T18:58:05.882Z,77.90
2018-04-28T19:01:09.277Z,78.02
2018-04-28T19:04:12.594Z,78.12
2018-04-28T19:07:15.942Z,78.17
2018-04-28T19:10:19.266Z,78.41
2018-04-28T19:13:22.669Z,78.26
2018-04-28T19:16:25.984Z,78.44
2018-04-28T19:19:29.328Z,78.36
2018-04-28T19:22:32.702Z,78.60
2018-04-28T19:25:36.786Z,78.35
2018-04-28T19:28:40.122Z,76.99
2018-04-28T19:31:44.214Z,75.67
2018-04-28T19:34:47.555Z,75.38
2018-04-28T19:37:50.889Z,74.29
2018-04-28T19:40:54.197Z,73.08
2018-04-28T19:43:57.525Z,72.85
2018-04-28T19:47:02.027Z,73.18
2018-04-28T19:50:05.433Z,72.71
2018-04-28T19:53:08.752Z,72.53
2018-04-28T19:56:12.942Z,72.97
2018-04-28T19:59:16.252Z,73.10
2018-04-28T20:02:19.672Z,73.57
2018-04-28T20:05:23.863Z,74.04
2018-04-28T20:08:27.195Z,74.18
2018-04-28T20:11:32.088Z,74.04
2018-04-28T20:14:35.478Z,74.57
2018-04-28T20:17:38.912Z,74.40
2018-04-28T20:20:43.031Z,74.66
2018-04-28T20:24:04.939Z,75.36
2018-04-28T20:27:08.337Z,75.80
2018-04-28T20:30:11.678Z,75.84
2018-04-28T20:33:15.026Z,75.99
2018-04-28T20:36:18.451Z,76.00
2018-04-28T20:39:21.766Z,76.38
2018-04-28T20:42:25.863Z,76.46
2018-04-28T20:45:29.251Z,76.78
2018-04-28T20:48:32.565Z,77.09
2018-04-28T20:51:35.963Z,77.06
2018-04-28T20:54:39.290Z,76.91
2018-04-28T20:57:43.755Z,76.94
2018-04-28T21:00:47.192Z,77.25
2018-04-28T21:03:50.533Z,77.44
2018-04-28T21:06:53.842Z,77.67
2018-04-28T21:09:57.201Z,77.76
2018-04-28T21:13:01.398Z,78.24
2018-04-28T21:16:04.713Z,78.51
2018-04-28T21:19:08.050Z,78.70
2018-04-28T21:22:11.365Z,78.90
2018-04-28T21:25:14.697Z,79.30
2018-04-28T21:28:18.092Z,79.59
2018-04-28T21:31:21.407Z,80.07
2018-04-28T21:34:25.514Z,80.22
2018-04-28T21:37:28.922Z,80.20
2018-04-28T21:40:32.263Z,80.25
2018-04-28T21:43:35.599Z,80.44
2018-04-28T21:46:39.005Z,80.51
2018-04-28T21:49:42.337Z,80.64
2018-04-28T21:52:45.675Z,80.59
2018-04-28T21:55:49.072Z,80.55
2018-04-28T21:58:52.405Z,80.91
2018-04-28T22:01:55.725Z,80.98
2018-04-28T22:04:59.828Z,81.19
2018-04-28T22:08:03.214Z,81.25
2018-04-28T22:11:07.993Z,81.49
2018-04-28T22:14:12.706Z,81.67
2018-04-28T22:17:18.570Z,81.84
2018-04-28T22:20:23.309Z,82.24
2018-04-28T22:23:28.269Z,82.30
2018-04-28T22:26:32.996Z,82.44
2018-04-28T22:29:39.152Z,82.94
2018-04-28T22:32:43.962Z,83.12
2018-04-28T22:35:49.304Z,83.25
2018-04-28T22:38:54.822Z,83.35
2018-04-28T22:41:59.585Z,83.48
2018-04-28T22:45:05.326Z,83.20
2018-04-28T22:48:10.015Z,83.04
2018-04-28T22:51:14.783Z,82.98
2018-04-28T22:54:19.503Z,82.74
2018-04-28T22:57:24.152Z,82.81
2018-04-28T23:00:29.288Z,82.98
2018-04-28T23:03:34.129Z,83.14
2018-04-28T23:06:38.257Z,83.32
2018-04-28T23:09:42.320Z,83.61
2018-04-28T23:12:45.640Z,83.73
2018-04-28T23:15:49.022Z,83.97
2018-04-28T23:18:52.357Z,84.19
2018-04-28T23:21:55.681Z,84.20
2018-04-28T23:24:59.004Z,84.31
2018-04-28T23:28:02.321Z,84.27
2018-04-28T23:31:05.712Z,84.19
2018-04-28T23:34:09.033Z,84.31
2018-04-28T23:37:12.411Z,84.37
2018-04-28T23:40:15.736Z,84.49
2018-04-28T23:43:19.114Z,84.53
2018-04-28T23:46:22.432Z,84.64
2018-04-28T23:49:25.747Z,84.88
2018-04-28T23:52:29.828Z,85.09
2018-04-28T23:55:33.166Z,85.31
2018-04-28T23:58:37.247Z,85.67
